Time;durP1;ratioP1;P1;durP2;ratioP2;P2;SDS_P1;SDS_P2;PMS_P1;PMS_P2;Temp;Humidity;BMP_temperature;BMP_pressure;BME280_temperature;BME280_humidity;BME280_pressure;Samples;Min_cycle;Max_cycle;Signal;HPM_P1;HPM_P2
2021/11/15 00:02:19;;;;;;;32.85;18.50;;;9.00;99.90;;;;;;5027153;28;20111;-94
2021/11/15 00:04:45;;;;;;;27.88;16.55;;;8.90;99.90;;;;;;5030961;28;20036;-93
2021/11/15 00:07:10;;;;;;;28.67;17.20;;;8.90;99.90;;;;;;5034743;28;20028;-94
2021/11/15 00:09:36;;;;;;;30.67;17.05;;;8.90;99.90;;;;;;5039963;28;20037;-94
2021/11/15 00:12:03;;;;;;;27.42;17.20;;;9.00;99.90;;;;;;5033445;28;20025;-94
2021/11/15 00:14:28;;;;;;;30.17;17.98;;;9.00;99.90;;;;;;5037630;28;20056;-95
2021/11/15 00:16:54;;;;;;;28.05;17.55;;;9.00;99.90;;;;;;5038315;28;20029;-94
2021/11/15 00:19:20;;;;;;;30.17;18.02;;;8.90;99.90;;;;;;5032797;28;20025;-95
2021/11/15 00:21:45;;;;;;;26.63;17.25;;;9.00;99.90;;;;;;5039473;28;20025;-94
2021/11/15 00:24:11;;;;;;;27.73;17.83;;;9.00;99.90;;;;;;5040323;28;20033;-95
2021/11/15 00:26:36;;;;;;;31.83;19.35;;;9.00;99.90;;;;;;5039850;28;20081;-94
2021/11/15 00:29:03;;;;;;;30.73;19.40;;;9.00;99.90;;;;;;5030289;28;20033;-94
2021/11/15 00:31:29;;;;;;;31.73;18.33;;;8.90;99.90;;;;;;5032424;28;20032;-95
2021/11/15 00:33:55;;;;;;;32.13;19.48;;;8.90;99.90;;;;;;5039736;28;20025;-94
2021/11/15 00:36:22;;;;;;;35.20;20.35;;;8.90;99.90;;;;;;5051727;28;20384;-95
2021/11/15 00:38:48;;;;;;;31.85;19.30;;;8.90;99.90;;;;;;5038172;28;20021;-94
2021/11/15 00:41:14;;;;;;;35.88;21.02;;;8.90;99.90;;;;;;5038145;28;20056;-94
2021/11/15 00:43:39;;;;;;;33.85;20.58;;;8.90;99.90;;;;;;5034660;28;20481;-95
2021/11/15 00:46:05;;;;;;;36.63;21.77;;;8.90;99.90;;;;;;5039344;28;20094;-93
2021/11/15 00:48:31;;;;;;;35.00;22.42;;;8.90;99.90;;;;;;5037470;28;20029;-94
2021/11/15 00:50:57;;;;;;;32.95;20.95;;;8.90;99.90;;;;;;5037858;28;20040;-94
2021/11/15 00:53:22;;;;;;;38.40;21.95;;;8.80;99.90;;;;;;5025856;28;20035;-95
2021/11/15 00:55:48;;;;;;;36.70;21.08;;;8.80;99.90;;;;;;5046595;28;20414;-94
2021/11/15 00:58:14;;;;;;;34.58;21.08;;;8.80;99.90;;;;;;5031872;28;20246;-95
2021/11/15 01:00:41;;;;;;;33.78;20.65;;;8.90;99.90;;;;;;5037804;28;20082;-93
2021/11/15 01:03:10;;;;;;;33.65;21.48;;;8.90;99.90;;;;;;5025424;28;20500;-96
2021/11/15 01:05:38;;;;;;;32.75;20.63;;;8.90;99.90;;;;;;5023342;28;20022;-93
2021/11/15 01:08:05;;;;;;;35.33;21.27;;;8.80;99.90;;;;;;5029228;28;20029;-94
2021/11/15 01:10:31;;;;;;;29.90;19.17;;;8.80;99.90;;;;;;5037806;28;20033;-93
2021/11/15 01:12:57;;;;;;;31.77;20.58;;;8.80;99.90;;;;;;5036593;28;20071;-94
2021/11/15 01:15:26;;;;;;;31.98;19.90;;;8.80;99.90;;;;;;5025460;28;20032;-95
2021/11/15 01:17:53;;;;;;;34.40;20.80;;;8.80;99.90;;;;;;5035849;28;20466;-95
2021/11/15 01:20:23;;;;;;;35.70;21.45;;;8.80;99.90;;;;;;5028002;28;20025;-95
2021/11/15 01:22:49;;;;;;;38.40;21.58;;;8.80;99.90;;;;;;5034921;28;20022;-94
2021/11/15 01:25:14;;;;;;;37.70;21.40;;;8.80;99.90;;;;;;5026785;28;20033;-93
2021/11/15 01:27:41;;;;;;;35.72;22.13;;;8.80;99.90;;;;;;5032847;28;20027;-93
2021/11/15 01:30:10;;;;;;;36.33;22.02;;;8.70;99.90;;;;;;5035914;28;20091;-95
2021/11/15 01:32:37;;;;;;;36.28;21.27;;;8.70;99.90;;;;;;5037419;28;20025;-95
2021/11/15 01:35:05;;;;;;;35.70;21.27;;;8.70;99.90;;;;;;5031204;28;20029;-95
2021/11/15 01:37:30;;;;;;;32.60;20.58;;;8.70;99.90;;;;;;5036469;28;20071;-94
2021/11/15 01:39:56;;;;;;;36.78;22.23;;;8.70;99.90;;;;;;5035743;28;20038;-95
2021/11/15 01:42:22;;;;;;;34.17;20.88;;;8.70;99.90;;;;;;5036588;28;20025;-94
2021/11/15 01:44:47;;;;;;;34.55;19.83;;;8.70;99.90;;;;;;5023022;28;20040;-95
2021/11/15 01:47:13;;;;;;;34.22;20.50;;;8.60;99.90;;;;;;5038021;28;20025;-96
2021/11/15 01:49:39;;;;;;;34.35;20.77;;;8.70;99.90;;;;;;5037542;28;20119;-95
2021/11/15 01:52:05;;;;;;;33.25;21.13;;;8.60;99.90;;;;;;5037692;28;20029;-94
2021/11/15 01:54:30;;;;;;;41.13;21.55;;;8.70;99.90;;;;;;5037831;28;20028;-94
2021/11/15 01:56:56;;;;;;;33.28;20.50;;;8.60;99.90;;;;;;5033960;28;20037;-94
2021/11/15 01:59:22;;;;;;;35.65;21.10;;;8.60;99.90;;;;;;5041668;28;20053;-94
2021/11/15 02:01:48;;;;;;;34.75;21.60;;;8.60;99.90;;;;;;5036166;28;20082;-94
2021/11/15 02:04:14;;;;;;;37.30;21.88;;;8.60;99.90;;;;;;5024327;28;20588;-95
2021/11/15 02:06:39;;;;;;;36.05;20.83;;;8.60;99.90;;;;;;5040016;28;20077;-95
2021/11/15 02:09:06;;;;;;;35.58;21.52;;;8.60;99.90;;;;;;5028478;28;20452;-95
2021/11/15 02:11:33;;;;;;;35.92;21.52;;;8.60;99.90;;;;;;5037039;28;20052;-94
2021/11/15 02:13:59;;;;;;;37.67;22.38;;;8.60;99.90;;;;;;5031525;28;20083;-94
2021/11/15 02:16:25;;;;;;;36.22;22.65;;;8.60;99.90;;;;;;5028804;28;20044;-95
2021/11/15 02:18:52;;;;;;;36.83;22.50;;;8.60;99.90;;;;;;5036895;28;20021;-94
2021/11/15 02:21:18;;;;;;;35.70;21.77;;;8.50;99.90;;;;;;5037249;28;20025;-94
2021/11/15 02:23:45;;;;;;;36.58;22.08;;;8.50;99.90;;;;;;5036235;28;20013;-94
2021/11/15 02:26:15;;;;;;;34.65;21.02;;;8.50;99.90;;;;;;5028310;28;20483;-93
2021/11/15 02:28:43;;;;;;;36.65;22.70;;;8.50;99.90;;;;;;5028225;28;21724;-94
2021/11/15 02:31:12;;;;;;;39.58;22.25;;;8.50;99.90;;;;;;5024927;28;20021;-95
2021/11/15 02:33:38;;;;;;;36.67;22.35;;;8.50;99.90;;;;;;5036258;28;20044;-93
2021/11/15 02:36:05;;;;;;;33.65;20.75;;;8.50;99.90;;;;;;5036456;28;20040;-95
2021/11/15 02:38:31;;;;;;;39.67;22.90;;;8.50;99.90;;;;;;5034777;28;20052;-95
2021/11/15 02:40:57;;;;;;;35.22;22.23;;;8.50;99.90;;;;;;5030969;28;20071;-94
2021/11/15 02:43:23;;;;;;;34.67;21.98;;;8.50;99.90;;;;;;5029273;28;20055;-94
2021/11/15 02:45:49;;;;;;;39.08;22.55;;;8.40;99.90;;;;;;5032779;28;20021;-95
2021/11/15 02:48:19;;;;;;;36.50;22.73;;;8.50;99.90;;;;;;5037084;28;20067;-94
2021/11/15 02:50:46;;;;;;;40.22;23.25;;;8.40;99.90;;;;;;5036960;28;20037;-95
2021/11/15 02:53:11;;;;;;;40.03;23.40;;;8.40;99.90;;;;;;5031441;28;20056;-94
2021/11/15 02:55:37;;;;;;;39.85;24.40;;;8.40;99.90;;;;;;5026265;28;20025;-94
2021/11/15 02:58:06;;;;;;;38.38;23.45;;;8.40;99.90;;;;;;5036605;28;20036;-94
2021/11/15 03:00:38;;;;;;;41.58;24.70;;;8.40;99.90;;;;;;5033909;28;20045;-94
2021/11/15 03:03:04;;;;;;;38.20;23.63;;;8.30;99.90;;;;;;5036396;28;20037;-92
2021/11/15 03:05:35;;;;;;;41.40;25.40;;;8.30;99.90;;;;;;5028630;28;20052;-95
2021/11/15 03:08:04;;;;;;;39.85;24.27;;;8.30;99.90;;;;;;5034128;28;21454;-94
2021/11/15 03:10:29;;;;;;;41.50;25.27;;;8.30;99.90;;;;;;5027689;28;20072;-95
2021/11/15 03:12:56;;;;;;;38.45;24.20;;;8.30;99.90;;;;;;5027492;28;20071;-94
2021/11/15 03:15:23;;;;;;;41.40;25.63;;;8.30;99.90;;;;;;5027517;28;20497;-93
2021/11/15 03:18:11;;;;;;;45.85;25.90;;;8.30;99.90;;;;;;5027317;28;20029;-94
2021/11/15 03:20:44;;;;;;;43.63;26.05;;;8.30;99.90;;;;;;5026914;28;20021;-94
2021/11/15 03:23:17;;;;;;;46.63;27.48;;;8.30;99.90;;;;;;5036736;28;20029;-94
2021/11/15 03:25:44;;;;;;;46.17;27.90;;;8.20;99.90;;;;;;5031690;28;20021;-94
2021/11/15 03:28:12;;;;;;;44.10;25.63;;;8.20;99.90;;;;;;5049352;28;20069;-94
2021/11/15 03:30:39;;;;;;;42.80;26.38;;;8.20;99.90;;;;;;5031800;28;20204;-95
2021/11/15 03:33:06;;;;;;;43.63;25.10;;;8.20;99.90;;;;;;5033845;28;20040;-94
2021/11/15 03:35:31;;;;;;;41.88;25.00;;;8.20;99.90;;;;;;5031209;28;20029;-93
2021/11/15 03:37:57;;;;;;;44.10;25.63;;;8.20;99.90;;;;;;5034462;28;20025;-94
2021/11/15 03:40:25;;;;;;;44.55;27.08;;;8.20;99.90;;;;;;5029244;28;20053;-94
2021/11/15 03:42:56;;;;;;;49.05;28.15;;;8.20;99.90;;;;;;5028563;28;20029;-94
2021/11/15 03:45:23;;;;;;;50.95;29.73;;;8.20;99.90;;;;;;5033181;28;20067;-94
2021/11/15 03:47:49;;;;;;;47.25;27.90;;;8.20;99.90;;;;;;5047006;28;20482;-94
2021/11/15 03:50:15;;;;;;;45.08;27.60;;;8.20;99.90;;;;;;5032219;28;20040;-94
2021/11/15 03:52:43;;;;;;;46.97;27.73;;;8.20;99.90;;;;;;5017454;28;20049;-94
2021/11/15 03:55:11;;;;;;;43.65;25.75;;;8.20;99.90;;;;;;5025396;28;20025;-94
2021/11/15 03:57:36;;;;;;;48.83;27.63;;;8.20;99.90;;;;;;5020681;28;20043;-95
2021/11/15 04:00:05;;;;;;;45.30;26.67;;;8.20;99.90;;;;;;5034862;28;20589;-94
2021/11/15 04:02:33;;;;;;;47.47;27.85;;;8.10;99.90;;;;;;5033880;28;20476;-95
2021/11/15 04:05:03;;;;;;;47.47;28.23;;;8.10;99.90;;;;;;5035252;28;20032;-94
2021/11/15 04:07:43;;;;;;;48.90;28.70;;;8.10;99.90;;;;;;5034720;28;20095;-94
2021/11/15 04:10:20;;;;;;;49.53;27.02;;;8.10;99.90;;;;;;5021126;28;20041;-94
2021/11/15 04:12:46;;;;;;;45.75;26.13;;;8.10;99.90;;;;;;5032270;28;20032;-94
2021/11/15 04:15:13;;;;;;;44.95;26.13;;;8.10;99.90;;;;;;5035032;28;20079;-94
2021/11/15 04:17:41;;;;;;;50.63;29.15;;;8.10;99.90;;;;;;5032247;28;20116;-94
2021/11/15 04:20:10;;;;;;;47.35;28.08;;;8.10;99.90;;;;;;5034606;28;20021;-94
2021/11/15 04:22:36;;;;;;;53.67;29.92;;;8.10;99.90;;;;;;5034407;28;20029;-94
2021/11/15 04:25:05;;;;;;;48.88;26.80;;;8.10;99.90;;;;;;5027783;28;20056;-94
2021/11/15 04:27:30;;;;;;;48.83;28.25;;;8.10;99.90;;;;;;5034263;28;20064;-95
2021/11/15 04:29:56;;;;;;;52.15;30.20;;;8.10;99.90;;;;;;5026798;28;20071;-95
2021/11/15 04:32:21;;;;;;;49.58;29.35;;;8.10;99.90;;;;;;5035865;28;20060;-95
2021/11/15 04:34:47;;;;;;;52.40;30.08;;;8.10;99.90;;;;;;5033099;28;20029;-93
2021/11/15 04:37:13;;;;;;;51.53;30.85;;;8.10;99.90;;;;;;5022102;28;20021;-94
2021/11/15 04:39:38;;;;;;;54.00;31.60;;;8.10;99.90;;;;;;5034456;28;20508;-94
2021/11/15 04:42:04;;;;;;;52.65;30.02;;;8.10;99.90;;;;;;5034005;28;20086;-94
2021/11/15 04:44:30;;;;;;;54.90;31.55;;;8.10;99.90;;;;;;5042723;28;20024;-94
2021/11/15 04:46:55;;;;;;;50.70;28.45;;;8.10;99.90;;;;;;5029315;28;20021;-94
2021/11/15 04:49:21;;;;;;;54.10;30.33;;;8.00;99.90;;;;;;5031682;28;20489;-94
2021/11/15 04:51:47;;;;;;;54.70;30.35;;;8.00;99.90;;;;;;5031096;28;20053;-93
2021/11/15 04:54:14;;;;;;;52.63;29.42;;;8.00;99.90;;;;;;5038150;28;20086;-94
2021/11/15 04:56:40;;;;;;;53.55;29.65;;;8.00;99.90;;;;;;5034771;28;20429;-94
2021/11/15 04:59:06;;;;;;;49.03;28.67;;;8.00;99.90;;;;;;5037680;28;20033;-94
2021/11/15 05:01:32;;;;;;;50.35;29.50;;;7.90;99.90;;;;;;5037114;28;20044;-94
2021/11/15 05:03:58;;;;;;;47.97;27.42;;;7.90;99.90;;;;;;5029980;28;20017;-95
2021/11/15 05:06:23;;;;;;;48.92;27.02;;;7.90;99.90;;;;;;5034782;28;20033;-95
2021/11/15 05:08:49;;;;;;;51.92;29.02;;;7.90;99.90;;;;;;5036846;28;20397;-95
2021/11/15 05:11:15;;;;;;;50.28;29.98;;;7.90;99.90;;;;;;5037735;28;20048;-95
2021/11/15 05:13:41;;;;;;;53.60;29.52;;;7.80;99.90;;;;;;5029525;28;20500;-94
2021/11/15 05:16:06;;;;;;;53.70;31.17;;;7.90;99.90;;;;;;5030165;28;20036;-93
2021/11/15 05:18:32;;;;;;;50.85;28.20;;;7.90;99.90;;;;;;5036912;28;20108;-94
2021/11/15 05:20:57;;;;;;;53.30;28.45;;;7.90;99.90;;;;;;5035282;28;20056;-94
2021/11/15 05:23:24;;;;;;;54.08;31.95;;;7.90;99.90;;;;;;5037784;28;20036;-94
2021/11/15 05:25:49;;;;;;;47.53;28.70;;;7.80;99.90;;;;;;5027441;28;20108;-94
2021/11/15 05:28:15;;;;;;;43.83;26.95;;;7.80;99.90;;;;;;5033862;28;20061;-94
2021/11/15 05:30:40;;;;;;;49.15;28.52;;;7.80;99.90;;;;;;5036751;28;20199;-95
2021/11/15 05:33:06;;;;;;;48.95;29.30;;;7.80;99.90;;;;;;5027645;28;20021;-94
2021/11/15 05:35:32;;;;;;;52.90;30.45;;;7.80;99.90;;;;;;5026068;28;20623;-95
2021/11/15 05:37:57;;;;;;;55.00;31.92;;;7.80;99.90;;;;;;5038800;28;20025;-94
2021/11/15 05:40:25;;;;;;;51.97;29.50;;;7.80;99.90;;;;;;5034280;28;20025;-94
2021/11/15 05:42:52;;;;;;;52.70;29.50;;;7.80;99.90;;;;;;5036531;28;20367;-94
2021/11/15 05:45:18;;;;;;;52.40;30.27;;;7.80;99.90;;;;;;5038946;28;20075;-93
2021/11/15 05:47:43;;;;;;;53.00;30.75;;;7.90;99.90;;;;;;5030107;28;20021;-95
2021/11/15 05:50:10;;;;;;;49.00;28.08;;;7.90;99.90;;;;;;5036367;28;20558;-94
2021/11/15 05:52:41;;;;;;;45.97;27.55;;;7.80;99.90;;;;;;5031990;28;20029;-95
2021/11/15 05:55:09;;;;;;;49.67;29.13;;;7.90;99.90;;;;;;5045148;28;20060;-94
2021/11/15 05:57:34;;;;;;;51.95;28.77;;;7.90;99.90;;;;;;5035791;28;20029;-94
2021/11/15 06:00:00;;;;;;;42.33;25.42;;;7.80;99.90;;;;;;5035939;28;20142;-95
2021/11/15 06:02:25;;;;;;;49.45;28.48;;;7.80;99.90;;;;;;5032558;28;20025;-92
2021/11/15 06:04:52;;;;;;;46.05;27.85;;;7.80;99.90;;;;;;5031562;28;20102;-94
2021/11/15 06:07:18;;;;;;;49.15;28.42;;;7.80;99.90;;;;;;5035973;28;20025;-94
2021/11/15 06:09:43;;;;;;;48.25;29.60;;;7.80;99.90;;;;;;5036855;28;20037;-94
2021/11/15 06:12:09;;;;;;;49.08;29.95;;;7.80;99.90;;;;;;5034834;28;20469;-92
2021/11/15 06:14:35;;;;;;;48.45;29.42;;;7.80;99.90;;;;;;5026252;28;20535;-93
2021/11/15 06:17:01;;;;;;;47.80;28.60;;;7.70;99.90;;;;;;5030884;28;20039;-93
2021/11/15 06:19:26;;;;;;;48.05;28.55;;;7.70;99.90;;;;;;5028077;28;20112;-94
2021/11/15 06:21:52;;;;;;;48.58;29.35;;;7.70;99.90;;;;;;5030242;28;20040;-94
2021/11/15 06:24:17;;;;;;;51.00;27.50;;;7.80;99.90;;;;;;5036529;28;20035;-94
2021/11/15 06:26:43;;;;;;;51.22;28.55;;;7.80;99.90;;;;;;5032947;28;20021;-94
2021/11/15 06:29:09;;;;;;;50.30;29.50;;;7.80;99.90;;;;;;5034695;28;20039;-93
2021/11/15 06:31:41;;;;;;;52.85;30.35;;;7.80;99.90;;;;;;5039103;28;20028;-94
2021/11/15 06:34:07;;;;;;;51.90;29.75;;;7.80;99.90;;;;;;5046340;28;20137;-91
2021/11/15 06:36:32;;;;;;;53.50;31.63;;;7.80;99.90;;;;;;5032806;28;20033;-93
2021/11/15 06:38:58;;;;;;;50.20;28.90;;;7.80;99.90;;;;;;5033365;28;20047;-94
2021/11/15 06:41:25;;;;;;;53.88;31.48;;;7.80;99.90;;;;;;5038120;28;20029;-93
2021/11/15 06:43:51;;;;;;;50.13;29.48;;;7.80;99.90;;;;;;5035307;28;20029;-93
2021/11/15 06:46:17;;;;;;;53.15;30.05;;;7.80;99.90;;;;;;5033166;28;20040;-94
2021/11/15 06:48:43;;;;;;;51.63;30.10;;;7.80;99.90;;;;;;5028639;28;20033;-95
2021/11/15 06:51:12;;;;;;;50.95;30.42;;;7.80;99.90;;;;;;5037907;28;20033;-94
2021/11/15 06:53:39;;;;;;;51.00;30.38;;;7.80;99.90;;;;;;5028659;28;20025;-94
2021/11/15 06:56:06;;;;;;;48.90;29.05;;;7.80;99.90;;;;;;5036280;28;20052;-95
2021/11/15 06:58:33;;;;;;;44.88;27.70;;;7.80;99.90;;;;;;5023192;28;20069;-94
2021/11/15 07:00:59;;;;;;;49.85;29.40;;;7.80;99.90;;;;;;5038180;28;20045;-94
2021/11/15 07:03:25;;;;;;;47.10;27.45;;;7.70;99.90;;;;;;5037656;28;20037;-95
2021/11/15 07:05:51;;;;;;;44.42;26.38;;;7.70;99.90;;;;;;5033494;28;20140;-94
2021/11/15 07:08:16;;;;;;;50.97;29.55;;;7.70;99.90;;;;;;5036573;28;20079;-95
2021/11/15 07:10:42;;;;;;;53.20;29.35;;;7.70;99.90;;;;;;5035846;28;20045;-94
2021/11/15 07:13:08;;;;;;;45.28;26.65;;;7.70;99.90;;;;;;5046863;28;20399;-95
2021/11/15 07:15:34;;;;;;;44.45;26.48;;;7.60;99.90;;;;;;5036138;28;20119;-95
2021/11/15 07:18:00;;;;;;;45.28;25.48;;;7.60;99.90;;;;;;5031926;28;20032;-94
2021/11/15 07:20:25;;;;;;;48.20;27.40;;;7.60;99.90;;;;;;5026830;28;20363;-94
2021/11/15 07:22:51;;;;;;;47.85;27.73;;;7.70;99.90;;;;;;5037424;28;20449;-96
2021/11/15 07:25:19;;;;;;;44.78;26.13;;;7.60;99.90;;;;;;5035635;28;20115;-95
2021/11/15 07:27:51;;;;;;;47.35;26.48;;;7.70;99.90;;;;;;5025232;28;20013;-95
2021/11/15 07:30:17;;;;;;;45.22;26.17;;;7.60;99.90;;;;;;5027558;28;20065;-94
2021/11/15 07:32:43;;;;;;;44.70;25.15;;;7.70;99.90;;;;;;5033621;28;20029;-96
2021/11/15 07:35:08;;;;;;;45.03;27.23;;;7.70;99.90;;;;;;5032587;28;20493;-93
2021/11/15 07:37:35;;;;;;;50.28;27.80;;;7.70;99.90;;;;;;5030688;28;20040;-95
2021/11/15 07:40:03;;;;;;;48.78;26.50;;;7.70;99.90;;;;;;5038228;28;20492;-94
2021/11/15 07:42:29;;;;;;;49.97;28.85;;;7.70;99.90;;;;;;5029787;28;20040;-95
2021/11/15 07:44:54;;;;;;;46.40;26.73;;;7.70;99.90;;;;;;5016942;28;20041;-94
2021/11/15 07:47:20;;;;;;;47.35;26.40;;;7.70;99.90;;;;;;5030324;28;20500;-95
2021/11/15 07:49:46;;;;;;;47.58;25.95;;;7.70;99.90;;;;;;5036570;28;20025;-94
2021/11/15 07:52:13;;;;;;;47.53;25.85;;;7.70;99.90;;;;;;5034997;28;20025;-95
2021/11/15 07:54:39;;;;;;;45.58;25.25;;;7.70;99.90;;;;;;5027079;28;20034;-94
2021/11/15 07:57:06;;;;;;;52.38;28.42;;;7.70;99.90;;;;;;5030957;28;20396;-95
2021/11/15 07:59:32;;;;;;;47.95;26.25;;;7.80;99.90;;;;;;5039933;28;20049;-95
2021/11/15 08:01:58;;;;;;;48.90;24.92;;;7.80;99.90;;;;;;5028368;28;20041;-93
2021/11/15 08:04:23;;;;;;;47.95;26.35;;;7.80;99.90;;;;;;5033790;28;20094;-94
2021/11/15 08:06:49;;;;;;;45.70;23.25;;;7.80;99.90;;;;;;5037613;28;20025;-94
2021/11/15 08:09:14;;;;;;;44.22;22.73;;;7.70;99.90;;;;;;5025442;28;20080;-94
2021/11/15 08:11:44;;;;;;;38.20;20.48;;;7.70;99.90;;;;;;5036474;28;20047;-94
2021/11/15 08:14:11;;;;;;;41.28;21.67;;;7.70;99.90;;;;;;5034955;28;20033;-93
2021/11/15 08:16:37;;;;;;;37.90;19.88;;;7.70;99.90;;;;;;5030435;28;20025;-95
2021/11/15 08:19:03;;;;;;;40.38;21.35;;;7.70;99.90;;;;;;5036595;28;20029;-94
2021/11/15 08:21:29;;;;;;;39.90;19.73;;;7.70;99.90;;;;;;5026334;28;20061;-96
2021/11/15 08:24:08;;;;;;;33.53;17.75;;;7.60;99.90;;;;;;5028441;28;20067;-95
2021/11/15 08:26:56;;;;;;;37.85;19.67;;;7.60;99.90;;;;;;5031124;28;20080;-93
2021/11/15 08:29:22;;;;;;;35.50;17.83;;;7.60;99.90;;;;;;5033381;28;20108;-95
2021/11/15 08:31:49;;;;;;;32.00;17.77;;;7.60;99.90;;;;;;5034941;28;20121;-96
2021/11/15 08:34:15;;;;;;;39.65;19.23;;;7.70;99.90;;;;;;5036879;28;20040;-93
2021/11/15 08:36:43;;;;;;;36.00;18.63;;;7.60;99.90;;;;;;5026393;28;20025;-94
2021/11/15 08:39:13;;;;;;;36.35;17.85;;;7.60;99.90;;;;;;5043351;28;20112;-93
2021/11/15 08:41:45;;;;;;;32.40;17.15;;;7.60;99.90;;;;;;5042226;28;20515;-93
2021/11/15 08:44:11;;;;;;;31.70;16.83;;;7.60;99.90;;;;;;5042571;28;20029;-94
2021/11/15 08:46:37;;;;;;;32.90;16.02;;;7.60;99.90;;;;;;5036814;28;20036;-95
2021/11/15 08:49:08;;;;;;;29.17;15.18;;;7.60;99.90;;;;;;5042578;28;20470;-94
2021/11/15 08:51:36;;;;;;;29.13;15.10;;;7.50;99.90;;;;;;5040127;28;20513;-94
2021/11/15 08:54:03;;;;;;;26.45;13.98;;;7.50;99.90;;;;;;5042516;28;20032;-94
2021/11/15 08:56:29;;;;;;;29.63;14.60;;;7.50;99.90;;;;;;5042107;28;20025;-94
2021/11/15 08:58:55;;;;;;;29.90;15.15;;;7.50;99.90;;;;;;5042253;28;20354;-95
2021/11/15 09:01:23;;;;;;;29.30;13.95;;;7.40;99.90;;;;;;5042161;28;20061;-91
2021/11/15 09:03:51;;;;;;;28.63;15.07;;;7.50;99.90;;;;;;5036455;28;20018;-88
2021/11/15 09:06:17;;;;;;;27.63;14.18;;;7.40;99.90;;;;;;5038834;28;20031;-90
2021/11/15 09:08:43;;;;;;;31.90;15.27;;;7.40;99.90;;;;;;5037748;28;20032;-91
2021/11/15 09:11:10;;;;;;;28.92;14.65;;;7.40;99.90;;;;;;5038250;28;20047;-91
2021/11/15 09:13:38;;;;;;;27.75;14.55;;;7.40;99.90;;;;;;5037911;28;20556;-90
2021/11/15 09:16:04;;;;;;;28.17;14.30;;;7.50;99.90;;;;;;5028322;28;20032;-90
2021/11/15 09:18:29;;;;;;;25.38;13.30;;;7.50;99.90;;;;;;5038135;28;20048;-90
2021/11/15 09:20:56;;;;;;;22.15;12.43;;;7.50;99.90;;;;;;5037575;28;20552;-89
2021/11/15 09:23:22;;;;;;;22.02;12.15;;;7.50;99.90;;;;;;5038173;28;20001;-90
2021/11/15 09:25:47;;;;;;;26.27;13.68;;;7.50;99.90;;;;;;5050072;28;20037;-90
2021/11/15 09:28:13;;;;;;;22.58;12.65;;;7.50;99.90;;;;;;5037306;28;20024;-89
2021/11/15 09:30:42;;;;;;;26.38;12.10;;;7.50;99.90;;;;;;5049415;28;20037;-91
2021/11/15 09:33:08;;;;;;;21.48;11.20;;;7.50;99.90;;;;;;5049364;28;20025;-90
2021/11/15 09:35:34;;;;;;;21.17;10.77;;;7.50;99.90;;;;;;5036924;28;20074;-91
2021/11/15 09:38:01;;;;;;;19.30;11.70;;;7.50;99.90;;;;;;5034618;28;20022;-90
2021/11/15 09:40:27;;;;;;;21.80;11.43;;;7.60;99.90;;;;;;5032663;28;20159;-94
2021/11/15 09:43:00;;;;;;;20.77;11.00;;;7.60;99.90;;;;;;5031301;28;20127;-93
2021/11/15 09:45:27;;;;;;;20.85;11.90;;;7.60;99.90;;;;;;5049690;28;20021;-92
2021/11/15 09:47:55;;;;;;;22.88;11.45;;;7.60;99.90;;;;;;5038763;28;20056;-90
2021/11/15 09:50:22;;;;;;;21.58;11.32;;;7.60;99.90;;;;;;5032926;28;20052;-92
2021/11/15 09:52:48;;;;;;;22.30;11.43;;;7.50;99.90;;;;;;5035963;28;20469;-91
2021/11/15 09:55:16;;;;;;;20.70;10.82;;;7.50;99.90;;;;;;5035813;28;20155;-92
2021/11/15 09:57:44;;;;;;;25.02;11.65;;;7.50;99.90;;;;;;5035457;28;20476;-91
2021/11/15 10:00:17;;;;;;;24.02;12.55;;;7.50;99.90;;;;;;5042717;28;20382;-94
2021/11/15 10:02:43;;;;;;;24.48;11.82;;;7.50;99.90;;;;;;5034524;28;20036;-92
2021/11/15 10:05:10;;;;;;;26.40;12.65;;;7.50;99.90;;;;;;5037211;28;20021;-92
2021/11/15 10:07:42;;;;;;;24.48;12.20;;;7.50;99.90;;;;;;5040273;28;20025;-90
2021/11/15 10:10:55;;;;;;;25.35;13.00;;;7.50;99.90;;;;;;5040832;28;20091;-89
2021/11/15 10:13:31;;;;;;;29.00;13.52;;;7.50;99.90;;;;;;5036545;28;20437;-91
2021/11/15 10:16:17;;;;;;;26.50;13.57;;;7.40;99.90;;;;;;5039581;28;20063;-90
2021/11/15 10:18:50;;;;;;;26.58;12.68;;;7.40;99.90;;;;;;5036767;28;20068;-92
2021/11/15 10:21:28;;;;;;;;;;;7.40;99.90;;;;;;5039136;28;20025;-91
2021/11/15 10:24:00;;;;;;;30.17;13.90;;;7.30;99.90;;;;;;5047722;28;20125;-91
2021/11/15 10:26:36;;;;;;;34.70;13.68;;;7.30;99.90;;;;;;5036719;28;20025;-91
2021/11/15 10:29:15;;;;;;;28.67;13.65;;;7.30;99.90;;;;;;5036641;28;20025;-90
2021/11/15 10:31:44;;;;;;;35.33;14.45;;;7.30;99.90;;;;;;5035376;28;20475;-91
2021/11/15 10:34:13;;;;;;;33.65;14.60;;;7.30;99.90;;;;;;5025129;28;20056;-92
2021/11/15 10:36:47;;;;;;;37.60;17.23;;;7.30;99.90;;;;;;5025530;28;20048;-91
2021/11/15 10:39:14;;;;;;;34.08;15.50;;;7.40;99.90;;;;;;5043578;28;20080;-90
2021/11/15 10:41:39;;;;;;;35.80;15.80;;;7.40;99.90;;;;;;5051975;28;20406;-92
2021/11/15 10:44:07;;;;;;;34.97;16.45;;;7.30;99.90;;;;;;5047049;28;20079;-91
2021/11/15 10:46:36;;;;;;;32.70;14.80;;;7.40;99.90;;;;;;5035123;28;20036;-93
2021/11/15 10:49:04;;;;;;;32.63;15.73;;;7.40;99.90;;;;;;5040162;28;20041;-93
2021/11/15 10:51:49;;;;;;;34.33;14.77;;;7.40;99.90;;;;;;5031787;28;20024;-92
2021/11/15 10:57:35;;;;;;;30.55;14.85;;;7.50;99.90;;;;;;5056527;28;20059;-92
2021/11/15 11:00:11;;;;;;;31.33;14.20;;;7.50;99.90;;;;;;4998401;28;20515;-94
2021/11/15 11:03:11;;;;;;;33.78;15.00;;;7.50;99.90;;;;;;5039113;28;20055;-93
2021/11/15 11:05:39;;;;;;;29.40;13.77;;;7.50;99.90;;;;;;4990240;28;20028;-93
2021/11/15 11:08:11;;;;;;;36.53;16.75;;;7.50;99.90;;;;;;5053885;28;20049;-93
2021/11/15 11:10:43;;;;;;;30.65;13.75;;;7.50;99.90;;;;;;5028612;28;20037;-93
2021/11/15 11:13:10;;;;;;;34.85;14.55;;;7.40;99.90;;;;;;5020244;28;20485;-93
2021/11/15 11:15:41;;;;;;;36.03;16.38;;;7.40;99.90;;;;;;5034136;28;20037;-93
2021/11/15 11:18:13;;;;;;;39.88;17.13;;;7.40;99.90;;;;;;5037202;28;20025;-92
2021/11/15 11:26:26;;;;;;;38.78;16.98;;;7.50;99.90;;;;;;5051110;28;20025;-92
2021/11/15 11:28:57;;;;;;;38.47;17.23;;;7.50;99.90;;;;;;5033349;28;20033;-92
2021/11/15 11:31:23;;;;;;;42.95;18.20;;;7.50;99.90;;;;;;5036417;28;20067;-91
2021/11/15 11:33:49;;;;;;;43.15;17.52;;;7.50;99.90;;;;;;5036367;28;20108;-92
2021/11/15 11:36:16;;;;;;;42.10;17.80;;;7.50;99.90;;;;;;5032489;28;20106;-91
2021/11/15 11:38:44;;;;;;;45.55;18.27;;;7.50;99.90;;;;;;5036326;28;20029;-90
2021/11/15 11:41:10;;;;;;;32.88;15.02;;;7.40;99.90;;;;;;5033059;28;20033;-91
2021/11/15 11:43:37;;;;;;;36.20;16.65;;;7.40;99.90;;;;;;5034551;28;20049;-91
2021/11/15 11:46:03;;;;;;;35.92;14.38;;;7.30;99.90;;;;;;5035654;28;20073;-92
2021/11/15 11:48:30;;;;;;;34.60;16.52;;;7.30;99.90;;;;;;5045683;28;20116;-91
2021/11/15 11:50:57;;;;;;;57.33;25.10;;;7.30;99.90;;;;;;5018798;28;20034;-90
2021/11/15 11:53:29;;;;;;;41.90;19.25;;;7.30;99.90;;;;;;5029637;28;20052;-90
2021/11/15 11:55:56;;;;;;;45.13;20.08;;;7.30;99.90;;;;;;5034788;28;20033;-91
2021/11/15 11:58:29;;;;;;;40.15;17.88;;;7.30;99.90;;;;;;5035012;28;20029;-91
2021/11/15 12:01:14;;;;;;;41.95;20.13;;;7.30;99.90;;;;;;5034030;28;20233;-90
2021/11/15 12:03:40;;;;;;;32.95;15.10;;;7.40;99.90;;;;;;5031068;28;20030;-92
2021/11/15 12:06:28;;;;;;;33.22;14.73;;;7.30;99.90;;;;;;5032732;28;20395;-93
2021/11/15 12:08:56;;;;;;;32.33;14.85;;;7.30;99.90;;;;;;5020462;28;20037;-94
2021/11/15 12:11:27;;;;;;;33.05;15.00;;;7.30;99.90;;;;;;5039738;28;20478;-95
2021/11/15 12:13:54;;;;;;;33.63;14.87;;;7.20;99.90;;;;;;5036556;28;20025;-93
2021/11/15 12:16:20;;;;;;;33.80;15.57;;;7.20;99.90;;;;;;5037939;28;20288;-94
2021/11/15 12:18:55;;;;;;;34.72;15.63;;;7.20;99.90;;;;;;5039743;28;21712;-94
2021/11/15 12:21:21;;;;;;;33.65;14.05;;;7.20;99.90;;;;;;5038821;28;20029;-92
2021/11/15 12:23:53;;;;;;;32.13;14.43;;;7.20;99.90;;;;;;5033234;28;20179;-94
2021/11/15 12:26:23;;;;;;;28.30;14.13;;;7.20;99.90;;;;;;5032057;28;20036;-94
2021/11/15 12:28:53;;;;;;;31.92;14.43;;;7.20;99.90;;;;;;5026431;28;20052;-94
2021/11/15 12:31:48;;;;;;;29.40;13.63;;;7.20;99.90;;;;;;5038143;28;20508;-94
2021/11/15 12:34:15;;;;;;;30.20;14.82;;;7.20;99.90;;;;;;5039424;28;20026;-93
2021/11/15 12:36:45;;;;;;;28.38;12.77;;;7.20;99.90;;;;;;5039489;28;20021;-93
2021/11/15 12:39:15;;;;;;;30.27;14.05;;;7.20;99.90;;;;;;5038678;28;20108;-93
2021/11/15 12:41:42;;;;;;;31.50;13.77;;;7.20;99.90;;;;;;5034174;28;20021;-94
2021/11/15 12:44:09;;;;;;;31.40;14.98;;;7.20;99.90;;;;;;5039733;28;20048;-94
2021/11/15 12:46:44;;;;;;;30.33;14.70;;;7.20;99.90;;;;;;5039189;28;20033;-94
2021/11/15 12:49:35;;;;;;;26.83;13.73;;;7.30;99.90;;;;;;5039809;28;20033;-94
2021/11/15 12:52:10;;;;;;;28.25;13.13;;;7.30;99.90;;;;;;5039081;28;20040;-93